sensor_id;sensor_type;location;lat;lon;timestamp;temperature;humidity
61912;DHT22;49973;52.084;5.412;2023-04-03T00:01:28;3.30;99.90
61912;DHT22;49973;52.084;5.412;2023-04-03T00:03:57;3.30;99.90
61912;DHT22;49973;52.084;5.412;2023-04-03T00:06:26;3.30;99.90
61912;DHT22;49973;52.084;5.412;2023-04-03T00:08:54;3.30;99.90
61912;DHT22;49973;52.084;5.412;2023-04-03T00:11:23;3.20;99.90
61912;DHT22;49973;52.084;5.412;2023-04-03T00:13:52;3.20;99.90
61912;DHT22;49973;52.084;5.412;2023-04-03T00:16:22;3.20;99.90
61912;DHT22;49973;52.084;5.412;2023-04-03T00:18:51;3.20;99.90
61912;DHT22;49973;52.084;5.412;2023-04-03T00:21:19;3.20;99.90
61912;DHT22;49973;52.084;5.412;2023-04-03T00:23:48;3.20;99.90
61912;DHT22;49973;52.084;5.412;2023-04-03T00:26:17;3.10;99.90
61912;DHT22;49973;52.084;5.412;2023-04-03T00:28:46;3.10;99.90
61912;DHT22;49973;52.084;5.412;2023-04-03T00:31:16;3.10;99.90
61912;DHT22;49973;52.084;5.412;2023-04-03T00:33:46;3.10;99.90
61912;DHT22;49973;52.084;5.412;2023-04-03T00:36:15;3.10;99.90
61912;DHT22;49973;52.084;5.412;2023-04-03T00:38:43;3.10;99.90
61912;DHT22;49973;52.084;5.412;2023-04-03T00:41:12;3.10;99.90
61912;DHT22;49973;52.084;5.412;2023-04-03T00:43:41;3.00;99.90
61912;DHT22;49973;52.084;5.412;2023-04-03T00:46:09;3.00;99.90
61912;DHT22;49973;52.084;5.412;2023-04-03T00:48:40;3.00;99.90
61912;DHT22;49973;52.084;5.412;2023-04-03T00:51:13;2.90;99.90
61912;DHT22;49973;52.084;5.412;2023-04-03T00:53:46;2.90;99.90
61912;DHT22;49973;52.084;5.412;2023-04-03T00:56:17;2.90;99.90
61912;DHT22;49973;52.084;5.412;2023-04-03T00:58:49;2.80;99.90
61912;DHT22;49973;52.084;5.412;2023-04-03T01:01:23;2.80;99.90
61912;DHT22;49973;52.084;5.412;2023-04-03T01:03:52;2.80;99.90
61912;DHT22;49973;52.084;5.412;2023-04-03T01:06:27;2.80;99.90
61912;DHT22;49973;52.084;5.412;2023-04-03T01:09:04;2.80;99.90
61912;DHT22;49973;52.084;5.412;2023-04-03T01:11:33;2.80;99.90
61912;DHT22;49973;52.084;5.412;2023-04-03T01:14:02;2.70;99.90
61912;DHT22;49973;52.084;5.412;2023-04-03T01:16:33;2.90;99.90
61912;DHT22;49973;52.084;5.412;2023-04-03T01:19:03;2.70;99.90
61912;DHT22;49973;52.084;5.412;2023-04-03T01:21:56;2.60;99.90
61912;DHT22;49973;52.084;5.412;2023-04-03T01:24:34;2.60;99.90
61912;DHT22;49973;52.084;5.412;2023-04-03T01:27:08;2.50;99.90
61912;DHT22;49973;52.084;5.412;2023-04-03T01:29:38;2.50;99.90
61912;DHT22;49973;52.084;5.412;2023-04-03T01:32:08;2.50;99.90
61912;DHT22;49973;52.084;5.412;2023-04-03T01:34:36;2.40;99.90
61912;DHT22;49973;52.084;5.412;2023-04-03T01:37:06;2.40;99.90
61912;DHT22;49973;52.084;5.412;2023-04-03T01:39:34;2.40;99.90
61912;DHT22;49973;52.084;5.412;2023-04-03T01:42:03;2.30;99.90
61912;DHT22;49973;52.084;5.412;2023-04-03T01:44:37;2.30;99.90
61912;DHT22;49973;52.084;5.412;2023-04-03T01:47:08;2.30;99.90
61912;DHT22;49973;52.084;5.412;2023-04-03T01:49:38;2.20;99.90
61912;DHT22;49973;52.084;5.412;2023-04-03T01:52:07;2.20;99.90
61912;DHT22;49973;52.084;5.412;2023-04-03T01:54:36;2.20;99.90
61912;DHT22;49973;52.084;5.412;2023-04-03T01:57:05;2.10;99.90
61912;DHT22;49973;52.084;5.412;2023-04-03T01:59:35;2.10;99.90
61912;DHT22;49973;52.084;5.412;2023-04-03T02:02:03;2.10;99.90
61912;DHT22;49973;52.084;5.412;2023-04-03T02:04:33;2.00;99.90
61912;DHT22;49973;52.084;5.412;2023-04-03T02:07:02;2.00;99.90
61912;DHT22;49973;52.084;5.412;2023-04-03T02:09:31;2.00;99.90
61912;DHT22;49973;52.084;5.412;2023-04-03T02:11:59;2.00;99.90
61912;DHT22;49973;52.084;5.412;2023-04-03T02:14:29;1.90;99.90
61912;DHT22;49973;52.084;5.412;2023-04-03T02:16:57;1.90;99.90
61912;DHT22;49973;52.084;5.412;2023-04-03T02:19:26;1.90;99.90
61912;DHT22;49973;52.084;5.412;2023-04-03T02:21:56;1.80;99.90
61912;DHT22;49973;52.084;5.412;2023-04-03T02:24:25;1.80;99.90
61912;DHT22;49973;52.084;5.412;2023-04-03T02:26:53;1.70;99.90
61912;DHT22;49973;52.084;5.412;2023-04-03T02:29:22;1.70;99.90
61912;DHT22;49973;52.084;5.412;2023-04-03T02:31:52;1.80;99.90
61912;DHT22;49973;52.084;5.412;2023-04-03T02:34:22;1.70;99.90
61912;DHT22;49973;52.084;5.412;2023-04-03T02:36:53;1.60;99.90
61912;DHT22;49973;52.084;5.412;2023-04-03T02:39:23;1.60;99.90
61912;DHT22;49973;52.084;5.412;2023-04-03T02:41:51;1.60;99.90
61912;DHT22;49973;52.084;5.412;2023-04-03T02:44:24;1.60;99.90
61912;DHT22;49973;52.084;5.412;2023-04-03T02:46:53;1.50;99.90
61912;DHT22;49973;52.084;5.412;2023-04-03T02:49:23;1.50;99.90
61912;DHT22;49973;52.084;5.412;2023-04-03T02:51:51;1.50;99.90
61912;DHT22;49973;52.084;5.412;2023-04-03T02:54:20;1.50;99.90
61912;DHT22;49973;52.084;5.412;2023-04-03T02:56:55;1.50;99.90
61912;DHT22;49973;52.084;5.412;2023-04-03T02:59:23;1.40;99.90
61912;DHT22;49973;52.084;5.412;2023-04-03T03:01:52;1.40;99.90
61912;DHT22;49973;52.084;5.412;2023-04-03T03:04:22;1.40;99.90
61912;DHT22;49973;52.084;5.412;2023-04-03T03:06:51;1.40;99.90
61912;DHT22;49973;52.084;5.412;2023-04-03T03:09:20;1.30;99.90
61912;DHT22;49973;52.084;5.412;2023-04-03T03:11:48;1.30;99.90
61912;DHT22;49973;52.084;5.412;2023-04-03T03:14:18;1.30;99.90
61912;DHT22;49973;52.084;5.412;2023-04-03T03:16:47;1.40;99.90
61912;DHT22;49973;52.084;5.412;2023-04-03T03:19:15;1.20;99.90
61912;DHT22;49973;52.084;5.412;2023-04-03T03:21:44;1.20;99.90
61912;DHT22;49973;52.084;5.412;2023-04-03T03:24:13;1.10;99.90
61912;DHT22;49973;52.084;5.412;2023-04-03T03:26:43;1.10;99.90
61912;DHT22;49973;52.084;5.412;2023-04-03T03:29:12;1.10;99.90
61912;DHT22;49973;52.084;5.412;2023-04-03T03:31:42;1.00;99.90
61912;DHT22;49973;52.084;5.412;2023-04-03T03:34:11;1.10;99.90
61912;DHT22;49973;52.084;5.412;2023-04-03T03:36:40;1.00;99.90
61912;DHT22;49973;52.084;5.412;2023-04-03T03:39:09;1.00;99.90
61912;DHT22;49973;52.084;5.412;2023-04-03T03:41:38;1.20;99.90
61912;DHT22;49973;52.084;5.412;2023-04-03T03:44:07;1.00;99.90
61912;DHT22;49973;52.084;5.412;2023-04-03T03:46:37;0.90;99.90
61912;DHT22;49973;52.084;5.412;2023-04-03T03:49:07;0.90;99.90
61912;DHT22;49973;52.084;5.412;2023-04-03T03:51:36;0.90;99.90
61912;DHT22;49973;52.084;5.412;2023-04-03T03:54:06;0.80;99.90
61912;DHT22;49973;52.084;5.412;2023-04-03T03:56:36;0.80;99.90
61912;DHT22;49973;52.084;5.412;2023-04-03T03:59:04;0.80;99.90
61912;DHT22;49973;52.084;5.412;2023-04-03T04:01:34;0.90;99.90
61912;DHT22;49973;52.084;5.412;2023-04-03T04:04:03;0.70;99.90
61912;DHT22;49973;52.084;5.412;2023-04-03T04:06:34;0.70;99.90
61912;DHT22;49973;52.084;5.412;2023-04-03T04:09:05;0.60;99.90
61912;DHT22;49973;52.084;5.412;2023-04-03T04:11:34;0.70;99.90
61912;DHT22;49973;52.084;5.412;2023-04-03T04:14:03;0.70;99.90
61912;DHT22;49973;52.084;5.412;2023-04-03T04:16:32;0.70;99.90
61912;DHT22;49973;52.084;5.412;2023-04-03T04:19:06;0.60;99.90
61912;DHT22;49973;52.084;5.412;2023-04-03T04:21:38;0.70;99.90
61912;DHT22;49973;52.084;5.412;2023-04-03T04:24:08;0.70;99.90
61912;DHT22;49973;52.084;5.412;2023-04-03T04:26:38;0.70;99.90
61912;DHT22;49973;52.084;5.412;2023-04-03T04:29:09;0.70;99.90
61912;DHT22;49973;52.084;5.412;2023-04-03T04:31:38;0.70;99.90
61912;DHT22;49973;52.084;5.412;2023-04-03T04:34:07;0.60;99.90
61912;DHT22;49973;52.084;5.412;2023-04-03T04:36:39;0.60;99.90
61912;DHT22;49973;52.084;5.412;2023-04-03T04:39:08;0.60;99.90
61912;DHT22;49973;52.084;5.412;2023-04-03T04:41:37;0.60;99.90
61912;DHT22;49973;52.084;5.412;2023-04-03T04:44:08;0.50;99.90
61912;DHT22;49973;52.084;5.412;2023-04-03T04:46:37;0.50;99.90
61912;DHT22;49973;52.084;5.412;2023-04-03T04:49:08;0.50;99.90
61912;DHT22;49973;52.084;5.412;2023-04-03T04:51:36;0.50;99.90
61912;DHT22;49973;52.084;5.412;2023-04-03T04:54:23;0.50;99.90
61912;DHT22;49973;52.084;5.412;2023-04-03T04:56:52;0.40;99.90
61912;DHT22;49973;52.084;5.412;2023-04-03T04:59:22;0.40;99.90
61912;DHT22;49973;52.084;5.412;2023-04-03T05:01:53;0.40;99.90
61912;DHT22;49973;52.084;5.412;2023-04-03T05:04:22;0.40;99.90
61912;DHT22;49973;52.084;5.412;2023-04-03T05:06:55;0.40;99.90
61912;DHT22;49973;52.084;5.412;2023-04-03T05:09:29;0.50;99.90
61912;DHT22;49973;52.084;5.412;2023-04-03T05:11:57;0.40;99.90
61912;DHT22;49973;52.084;5.412;2023-04-03T05:14:29;0.30;99.90
61912;DHT22;49973;52.084;5.412;2023-04-03T05:17:03;0.40;99.90
61912;DHT22;49973;52.084;5.412;2023-04-03T05:19:34;0.40;99.90
61912;DHT22;49973;52.084;5.412;2023-04-03T05:22:05;0.40;99.90
61912;DHT22;49973;52.084;5.412;2023-04-03T05:24:36;0.50;99.90
61912;DHT22;49973;52.084;5.412;2023-04-03T05:27:05;0.50;99.90
61912;DHT22;49973;52.084;5.412;2023-04-03T05:29:38;0.50;99.90
61912;DHT22;49973;52.084;5.412;2023-04-03T05:32:16;0.50;99.90
61912;DHT22;49973;52.084;5.412;2023-04-03T05:34:48;0.50;99.90
61912;DHT22;49973;52.084;5.412;2023-04-03T05:37:19;0.60;99.90
61912;DHT22;49973;52.084;5.412;2023-04-03T05:39:52;0.60;99.90
61912;DHT22;49973;52.084;5.412;2023-04-03T05:42:21;0.60;99.90
61912;DHT22;49973;52.084;5.412;2023-04-03T05:44:50;0.70;99.90
61912;DHT22;49973;52.084;5.412;2023-04-03T05:47:19;0.70;99.90
61912;DHT22;49973;52.084;5.412;2023-04-03T05:49:48;0.80;99.90
61912;DHT22;49973;52.084;5.412;2023-04-03T05:52:23;0.80;99.90
61912;DHT22;49973;52.084;5.412;2023-04-03T05:54:56;0.90;99.90
61912;DHT22;49973;52.084;5.412;2023-04-03T05:57:27;1.00;99.90
61912;DHT22;49973;52.084;5.412;2023-04-03T05:59:56;1.10;99.90
61912;DHT22;49973;52.084;5.412;2023-04-03T06:02:25;1.10;99.90
61912;DHT22;49973;52.084;5.412;2023-04-03T06:04:54;1.30;99.90
61912;DHT22;49973;52.084;5.412;2023-04-03T06:07:24;1.40;99.90
61912;DHT22;49973;52.084;5.412;2023-04-03T06:09:57;1.40;99.90
61912;DHT22;49973;52.084;5.412;2023-04-03T06:12:26;1.60;99.90
61912;DHT22;49973;52.084;5.412;2023-04-03T06:14:56;1.80;99.90
61912;DHT22;49973;52.084;5.412;2023-04-03T06:17:25;2.00;99.90
61912;DHT22;49973;52.084;5.412;2023-04-03T06:19:54;2.30;99.90
61912;DHT22;49973;52.084;5.412;2023-04-03T06:22:25;2.70;99.90
61912;DHT22;49973;52.084;5.412;2023-04-03T06:24:58;3.10;99.90
61912;DHT22;49973;52.084;5.412;2023-04-03T06:27:27;3.50;99.90
61912;DHT22;49973;52.084;5.412;2023-04-03T06:29:55;4.00;99.90
61912;DHT22;49973;52.084;5.412;2023-04-03T06:32:24;4.40;99.90
61912;DHT22;49973;52.084;5.412;2023-04-03T06:34:53;4.80;99.90
61912;DHT22;49973;52.084;5.412;2023-04-03T06:37:23;5.00;99.90
61912;DHT22;49973;52.084;5.412;2023-04-03T06:39:53;5.20;99.90
61912;DHT22;49973;52.084;5.412;2023-04-03T06:42:23;5.50;99.90
61912;DHT22;49973;52.084;5.412;2023-04-03T06:44:58;5.80;99.90
61912;DHT22;49973;52.084;5.412;2023-04-03T06:47:27;6.20;99.90
61912;DHT22;49973;52.084;5.412;2023-04-03T06:49:56;6.50;99.90
61912;DHT22;49973;52.084;5.412;2023-04-03T06:52:25;6.70;99.90
61912;DHT22;49973;52.084;5.412;2023-04-03T06:54:53;6.90;99.90
61912;DHT22;49973;52.084;5.412;2023-04-03T06:57:26;7.00;99.90
61912;DHT22;49973;52.084;5.412;2023-04-03T06:59:55;7.10;99.90
61912;DHT22;49973;52.084;5.412;2023-04-03T07:02:23;7.20;99.90
61912;DHT22;49973;52.084;5.412;2023-04-03T07:04:52;7.30;99.90
61912;DHT22;49973;52.084;5.412;2023-04-03T07:07:21;7.70;99.90
61912;DHT22;49973;52.084;5.412;2023-04-03T07:09:50;8.00;99.90
61912;DHT22;49973;52.084;5.412;2023-04-03T07:12:19;8.50;99.90
61912;DHT22;49973;52.084;5.412;2023-04-03T07:14:49;8.90;99.90
61912;DHT22;49973;52.084;5.412;2023-04-03T07:17:17;9.30;99.90
61912;DHT22;49973;52.084;5.412;2023-04-03T07:19:46;9.60;99.90
61912;DHT22;49973;52.084;5.412;2023-04-03T07:22:15;10.00;99.90
61912;DHT22;49973;52.084;5.412;2023-04-03T07:24:44;10.30;99.90
61912;DHT22;49973;52.084;5.412;2023-04-03T07:27:13;10.70;99.90
61912;DHT22;49973;52.084;5.412;2023-04-03T07:29:42;11.10;99.90
61912;DHT22;49973;52.084;5.412;2023-04-03T07:32:12;11.40;99.90
61912;DHT22;49973;52.084;5.412;2023-04-03T07:34:41;11.70;99.90
61912;DHT22;49973;52.084;5.412;2023-04-03T07:37:10;11.80;99.90
61912;DHT22;49973;52.084;5.412;2023-04-03T07:39:40;11.90;99.90
61912;DHT22;49973;52.084;5.412;2023-04-03T07:42:12;11.90;99.90
61912;DHT22;49973;52.084;5.412;2023-04-03T07:44:40;11.90;99.90
61912;DHT22;49973;52.084;5.412;2023-04-03T07:47:10;12.00;99.90
61912;DHT22;49973;52.084;5.412;2023-04-03T07:49:40;12.20;99.90
61912;DHT22;49973;52.084;5.412;2023-04-03T07:52:08;12.40;99.90
61912;DHT22;49973;52.084;5.412;2023-04-03T07:54:37;12.70;99.90
61912;DHT22;49973;52.084;5.412;2023-04-03T07:57:06;12.70;99.90
61912;DHT22;49973;52.084;5.412;2023-04-03T07:59:34;12.80;99.90
61912;DHT22;49973;52.084;5.412;2023-04-03T08:02:03;13.00;99.90
61912;DHT22;49973;52.084;5.412;2023-04-03T08:04:32;13.30;99.90
61912;DHT22;49973;52.084;5.412;2023-04-03T08:07:03;13.70;99.90
61912;DHT22;49973;52.084;5.412;2023-04-03T08:09:32;14.10;99.90
61912;DHT22;49973;52.084;5.412;2023-04-03T08:12:00;14.20;99.90
61912;DHT22;49973;52.084;5.412;2023-04-03T08:14:30;14.30;99.90
61912;DHT22;49973;52.084;5.412;2023-04-03T08:17:01;14.50;99.90
61912;DHT22;49973;52.084;5.412;2023-04-03T08:19:32;14.60;99.90
61912;DHT22;49973;52.084;5.412;2023-04-03T08:22:02;14.60;99.90
61912;DHT22;49973;52.084;5.412;2023-04-03T08:24:32;14.50;99.90
61912;DHT22;49973;52.084;5.412;2023-04-03T08:27:03;14.30;99.90
61912;DHT22;49973;52.084;5.412;2023-04-03T08:29:32;14.40;99.90
61912;DHT22;49973;52.084;5.412;2023-04-03T08:32:01;14.50;99.90
61912;DHT22;49973;52.084;5.412;2023-04-03T08:34:29;14.70;99.90
61912;DHT22;49973;52.084;5.412;2023-04-03T08:37:03;15.10;99.90
61912;DHT22;49973;52.084;5.412;2023-04-03T08:39:31;15.30;99.90
61912;DHT22;49973;52.084;5.412;2023-04-03T08:42:05;15.30;99.90
61912;DHT22;49973;52.084;5.412;2023-04-03T08:44:39;15.30;99.90
61912;DHT22;49973;52.084;5.412;2023-04-03T08:47:18;15.50;99.90
61912;DHT22;49973;52.084;5.412;2023-04-03T08:49:51;15.50;99.90
61912;DHT22;49973;52.084;5.412;2023-04-03T08:52:28;15.50;99.90
61912;DHT22;49973;52.084;5.412;2023-04-03T08:55:01;15.50;99.90
61912;DHT22;49973;52.084;5.412;2023-04-03T08:57:33;15.50;99.90
61912;DHT22;49973;52.084;5.412;2023-04-03T09:00:05;15.50;99.90
61912;DHT22;49973;52.084;5.412;2023-04-03T09:02:41;15.60;99.90
61912;DHT22;49973;52.084;5.412;2023-04-03T09:05:15;15.80;99.90
61912;DHT22;49973;52.084;5.412;2023-04-03T09:07:47;15.90;99.90
61912;DHT22;49973;52.084;5.412;2023-04-03T09:10:22;15.80;99.90
61912;DHT22;49973;52.084;5.412;2023-04-03T09:12:59;15.70;99.90
61912;DHT22;49973;52.084;5.412;2023-04-03T09:15:28;15.70;99.90
61912;DHT22;49973;52.084;5.412;2023-04-03T09:18:11;15.70;99.90
61912;DHT22;49973;52.084;5.412;2023-04-03T09:20:47;15.70;99.90
61912;DHT22;49973;52.084;5.412;2023-04-03T09:23:24;15.80;99.90
61912;DHT22;49973;52.084;5.412;2023-04-03T09:26:00;15.80;99.90
61912;DHT22;49973;52.084;5.412;2023-04-03T09:28:34;15.90;99.90
61912;DHT22;49973;52.084;5.412;2023-04-03T09:31:19;15.80;99.90
61912;DHT22;49973;52.084;5.412;2023-04-03T09:33:50;15.70;99.90
61912;DHT22;49973;52.084;5.412;2023-04-03T09:36:41;15.60;99.90
61912;DHT22;49973;52.084;5.412;2023-04-03T09:39:15;15.40;99.90
61912;DHT22;49973;52.084;5.412;2023-04-03T09:41:58;15.40;99.90
61912;DHT22;49973;52.084;5.412;2023-04-03T09:44:29;15.40;99.90
61912;DHT22;49973;52.084;5.412;2023-04-03T09:46:59;15.50;99.90
61912;DHT22;49973;52.084;5.412;2023-04-03T09:49:29;15.40;99.90
61912;DHT22;49973;52.084;5.412;2023-04-03T09:52:00;15.50;99.90
61912;DHT22;49973;52.084;5.412;2023-04-03T09:54:47;15.60;99.90
61912;DHT22;49973;52.084;5.412;2023-04-03T09:57:16;15.70;99.90
61912;DHT22;49973;52.084;5.412;2023-04-03T09:59:56;15.80;99.90
61912;DHT22;49973;52.084;5.412;2023-04-03T10:02:34;15.90;99.90
61912;DHT22;49973;52.084;5.412;2023-04-03T10:05:05;15.80;99.90
61912;DHT22;49973;52.084;5.412;2023-04-03T10:08:07;15.80;99.90
61912;DHT22;49973;52.084;5.412;2023-04-03T10:10:39;15.90;99.90
61912;DHT22;49973;52.084;5.412;2023-04-03T10:13:11;16.00;99.90
61912;DHT22;49973;52.084;5.412;2023-04-03T10:15:51;16.00;99.90
61912;DHT22;49973;52.084;5.412;2023-04-03T10:18:31;15.90;99.90
61912;DHT22;49973;52.084;5.412;2023-04-03T10:21:07;15.90;99.90
61912;DHT22;49973;52.084;5.412;2023-04-03T10:23:59;15.90;99.90
61912;DHT22;49973;52.084;5.412;2023-04-03T10:26:39;15.80;99.90
61912;DHT22;49973;52.084;5.412;2023-04-03T10:29:21;15.70;99.90
61912;DHT22;49973;52.084;5.412;2023-04-03T10:31:55;15.50;99.90
61912;DHT22;49973;52.084;5.412;2023-04-03T10:34:28;15.30;99.90
61912;DHT22;49973;52.084;5.412;2023-04-03T10:37:04;15.20;99.90
61912;DHT22;49973;52.084;5.412;2023-04-03T10:39:39;15.00;99.90
61912;DHT22;49973;52.084;5.412;2023-04-03T10:42:18;15.00;99.90
61912;DHT22;49973;52.084;5.412;2023-04-03T10:44:57;15.00;99.90
61912;DHT22;49973;52.084;5.412;2023-04-03T10:47:34;15.20;99.90
61912;DHT22;49973;52.084;5.412;2023-04-03T10:50:27;15.30;99.90
61912;DHT22;49973;52.084;5.412;2023-04-03T10:53:01;15.40;99.90
61912;DHT22;49973;52.084;5.412;2023-04-03T10:55:36;15.40;99.90
61912;DHT22;49973;52.084;5.412;2023-04-03T10:58:17;15.30;99.90
61912;DHT22;49973;52.084;5.412;2023-04-03T11:00:49;15.30;99.90
61912;DHT22;49973;52.084;5.412;2023-04-03T11:03:27;15.30;99.90
61912;DHT22;49973;52.084;5.412;2023-04-03T11:06:00;15.30;99.90
61912;DHT22;49973;52.084;5.412;2023-04-03T11:08:36;15.40;99.90
61912;DHT22;49973;52.084;5.412;2023-04-03T11:11:11;15.40;99.90
61912;DHT22;49973;52.084;5.412;2023-04-03T11:13:45;15.40;99.90
61912;DHT22;49973;52.084;5.412;2023-04-03T11:16:20;15.30;99.90
61912;DHT22;49973;52.084;5.412;2023-04-03T11:18:56;15.20;99.90
61912;DHT22;49973;52.084;5.412;2023-04-03T11:21:29;15.10;99.90
61912;DHT22;49973;52.084;5.412;2023-04-03T11:24:03;15.10;99.90
61912;DHT22;49973;52.084;5.412;2023-04-03T11:26:37;15.20;99.90
61912;DHT22;49973;52.084;5.412;2023-04-03T11:29:10;15.30;99.90
61912;DHT22;49973;52.084;5.412;2023-04-03T11:32:09;15.40;99.90
61912;DHT22;49973;52.084;5.412;2023-04-03T11:34:40;15.40;99.90
61912;DHT22;49973;52.084;5.412;2023-04-03T11:37:20;15.30;99.90
61912;DHT22;49973;52.084;5.412;2023-04-03T11:39:54;15.40;99.90
61912;DHT22;49973;52.084;5.412;2023-04-03T11:42:32;15.50;99.90
61912;DHT22;49973;52.084;5.412;2023-04-03T11:45:34;15.60;99.90
61912;DHT22;49973;52.084;5.412;2023-04-03T11:48:06;15.70;99.90
61912;DHT22;49973;52.084;5.412;2023-04-03T11:50:50;15.90;99.90
61912;DHT22;49973;52.084;5.412;2023-04-03T11:53:31;16.00;99.90
61912;DHT22;49973;52.084;5.412;2023-04-03T11:56:28;16.10;99.90
61912;DHT22;49973;52.084;5.412;2023-04-03T11:59:19;16.10;99.90
61912;DHT22;49973;52.084;5.412;2023-04-03T12:01:52;16.30;99.90
61912;DHT22;49973;52.084;5.412;2023-04-03T12:04:23;16.40;99.90
61912;DHT22;49973;52.084;5.412;2023-04-03T12:10:13;16.70;99.90
61912;DHT22;49973;52.084;5.412;2023-04-03T12:13:01;17.10;99.90
61912;DHT22;49973;52.084;5.412;2023-04-03T12:15:51;17.40;99.90
61912;DHT22;49973;52.084;5.412;2023-04-03T12:19:02;17.50;99.90
61912;DHT22;49973;52.084;5.412;2023-04-03T12:22:06;17.60;99.90
61912;DHT22;49973;52.084;5.412;2023-04-03T12:24:37;17.70;99.90
61912;DHT22;49973;52.084;5.412;2023-04-03T12:27:27;17.90;99.90
61912;DHT22;49973;52.084;5.412;2023-04-03T12:33:04;18.00;99.90
61912;DHT22;49973;52.084;5.412;2023-04-03T12:35:55;18.10;99.90
61912;DHT22;49973;52.084;5.412;2023-04-03T12:38:53;18.30;99.90
61912;DHT22;49973;52.084;5.412;2023-04-03T12:41:32;18.50;99.90
61912;DHT22;49973;52.084;5.412;2023-04-03T12:44:35;18.60;99.90
61912;DHT22;49973;52.084;5.412;2023-04-03T12:50:04;18.70;99.90
61912;DHT22;49973;52.084;5.412;2023-04-03T12:52:49;18.70;99.90
61912;DHT22;49973;52.084;5.412;2023-04-03T12:55:20;18.30;99.90
61912;DHT22;49973;52.084;5.412;2023-04-03T12:57:49;18.10;99.90
61912;DHT22;49973;52.084;5.412;2023-04-03T13:00:33;18.20;99.90
61912;DHT22;49973;52.084;5.412;2023-04-03T13:03:03;18.30;99.90
61912;DHT22;49973;52.084;5.412;2023-04-03T13:05:34;18.30;99.90
61912;DHT22;49973;52.084;5.412;2023-04-03T13:08:09;18.30;99.90
61912;DHT22;49973;52.084;5.412;2023-04-03T13:10:51;18.50;99.90
61912;DHT22;49973;52.084;5.412;2023-04-03T13:13:20;18.70;99.90
61912;DHT22;49973;52.084;5.412;2023-04-03T13:15:50;18.90;99.90
61912;DHT22;49973;52.084;5.412;2023-04-03T13:18:29;19.00;99.90
61912;DHT22;49973;52.084;5.412;2023-04-03T13:21:02;19.10;99.90
61912;DHT22;49973;52.084;5.412;2023-04-03T13:23:34;19.10;99.90
61912;DHT22;49973;52.084;5.412;2023-04-03T13:26:04;19.10;99.90
61912;DHT22;49973;52.084;5.412;2023-04-03T13:28:34;19.00;99.90
61912;DHT22;49973;52.084;5.412;2023-04-03T13:31:08;19.10;99.90
61912;DHT22;49973;52.084;5.412;2023-04-03T13:33:38;19.20;99.40
61912;DHT22;49973;52.084;5.412;2023-04-03T13:36:08;19.20;98.90
61912;DHT22;49973;52.084;5.412;2023-04-03T13:38:45;19.30;98.50
61912;DHT22;49973;52.084;5.412;2023-04-03T13:41:24;19.30;98.30
61912;DHT22;49973;52.084;5.412;2023-04-03T13:43:53;19.20;97.80
61912;DHT22;49973;52.084;5.412;2023-04-03T13:46:36;19.00;98.10
61912;DHT22;49973;52.084;5.412;2023-04-03T13:49:19;19.20;97.80
61912;DHT22;49973;52.084;5.412;2023-04-03T13:51:49;19.20;97.70
61912;DHT22;49973;52.084;5.412;2023-04-03T13:54:37;19.40;97.20
61912;DHT22;49973;52.084;5.412;2023-04-03T13:57:13;19.30;96.60
61912;DHT22;49973;52.084;5.412;2023-04-03T13:59:42;19.30;96.70
61912;DHT22;49973;52.084;5.412;2023-04-03T14:02:17;19.40;96.70
61912;DHT22;49973;52.084;5.412;2023-04-03T14:04:53;19.60;96.10
61912;DHT22;49973;52.084;5.412;2023-04-03T14:07:25;19.60;95.90
61912;DHT22;49973;52.084;5.412;2023-04-03T14:09:55;19.70;95.70
61912;DHT22;49973;52.084;5.412;2023-04-03T14:12:27;19.80;95.00
61912;DHT22;49973;52.084;5.412;2023-04-03T14:15:00;19.70;94.70
61912;DHT22;49973;52.084;5.412;2023-04-03T14:17:29;19.70;94.70
61912;DHT22;49973;52.084;5.412;2023-04-03T14:19:58;19.70;94.60
61912;DHT22;49973;52.084;5.412;2023-04-03T14:22:30;19.70;94.60
61912;DHT22;49973;52.084;5.412;2023-04-03T14:25:01;19.70;94.40
61912;DHT22;49973;52.084;5.412;2023-04-03T14:27:34;19.80;94.00
61912;DHT22;49973;52.084;5.412;2023-04-03T14:30:09;19.70;93.20
61912;DHT22;49973;52.084;5.412;2023-04-03T14:32:40;19.50;92.90
61912;DHT22;49973;52.084;5.412;2023-04-03T14:35:09;19.30;92.50
61912;DHT22;49973;52.084;5.412;2023-04-03T14:37:37;19.20;92.30
61912;DHT22;49973;52.084;5.412;2023-04-03T14:40:13;19.10;92.30
61912;DHT22;49973;52.084;5.412;2023-04-03T14:42:42;19.00;91.80
61912;DHT22;49973;52.084;5.412;2023-04-03T14:45:12;18.70;91.60
61912;DHT22;49973;52.084;5.412;2023-04-03T14:47:44;18.50;91.40
61912;DHT22;49973;52.084;5.412;2023-04-03T14:50:16;18.40;91.20
61912;DHT22;49973;52.084;5.412;2023-04-03T14:52:45;18.40;90.90
61912;DHT22;49973;52.084;5.412;2023-04-03T14:55:17;18.30;90.60
61912;DHT22;49973;52.084;5.412;2023-04-03T14:57:46;18.10;90.40
61912;DHT22;49973;52.084;5.412;2023-04-03T15:00:17;17.90;90.20
61912;DHT22;49973;52.084;5.412;2023-04-03T15:02:47;17.80;90.00
61912;DHT22;49973;52.084;5.412;2023-04-03T15:05:16;17.70;90.00
61912;DHT22;49973;52.084;5.412;2023-04-03T15:07:50;17.50;89.90
61912;DHT22;49973;52.084;5.412;2023-04-03T15:10:23;17.30;90.10
61912;DHT22;49973;52.084;5.412;2023-04-03T15:12:53;17.30;90.00
61912;DHT22;49973;52.084;5.412;2023-04-03T15:15:23;17.20;89.60
61912;DHT22;49973;52.084;5.412;2023-04-03T15:17:53;17.10;88.50
61912;DHT22;49973;52.084;5.412;2023-04-03T15:20:24;16.90;87.80
61912;DHT22;49973;52.084;5.412;2023-04-03T15:22:54;16.80;88.00
61912;DHT22;49973;52.084;5.412;2023-04-03T15:25:26;16.70;87.30
61912;DHT22;49973;52.084;5.412;2023-04-03T15:27:55;16.50;87.30
61912;DHT22;49973;52.084;5.412;2023-04-03T15:30:24;16.30;87.30
61912;DHT22;49973;52.084;5.412;2023-04-03T15:32:52;16.30;87.30
61912;DHT22;49973;52.084;5.412;2023-04-03T15:35:21;16.30;86.90
61912;DHT22;49973;52.084;5.412;2023-04-03T15:37:50;16.40;86.40
61912;DHT22;49973;52.084;5.412;2023-04-03T15:40:19;16.30;86.00
61912;DHT22;49973;52.084;5.412;2023-04-03T15:42:49;16.10;86.00
61912;DHT22;49973;52.084;5.412;2023-04-03T15:45:20;15.80;85.80
61912;DHT22;49973;52.084;5.412;2023-04-03T15:47:49;15.60;86.20
61912;DHT22;49973;52.084;5.412;2023-04-03T15:50:18;15.60;85.60
61912;DHT22;49973;52.084;5.412;2023-04-03T15:52:49;15.60;85.50
61912;DHT22;49973;52.084;5.412;2023-04-03T15:55:21;15.60;85.40
61912;DHT22;49973;52.084;5.412;2023-04-03T15:57:52;15.60;85.30
61912;DHT22;49973;52.084;5.412;2023-04-03T16:00:21;15.60;84.60
61912;DHT22;49973;52.084;5.412;2023-04-03T16:02:51;15.50;84.50
61912;DHT22;49973;52.084;5.412;2023-04-03T16:05:21;15.30;84.40
61912;DHT22;49973;52.084;5.412;2023-04-03T16:07:50;15.20;84.10
61912;DHT22;49973;52.084;5.412;2023-04-03T16:10:19;15.30;83.80
61912;DHT22;49973;52.084;5.412;2023-04-03T16:12:48;15.40;83.40
61912;DHT22;49973;52.084;5.412;2023-04-03T16:15:18;15.40;82.90
61912;DHT22;49973;52.084;5.412;2023-04-03T16:17:47;15.40;82.90
61912;DHT22;49973;52.084;5.412;2023-04-03T16:20:16;15.60;82.90